createdAt,value
2018-12-02T00:00:55.096Z,10.06
2018-12-02T00:01:55.083Z,9.98
2018-12-02T00:02:55.100Z,9.98
2018-12-02T00:03:55.061Z,9.99
2018-12-02T00:04:55.057Z,10.07
2018-12-02T00:05:55.044Z,10.06
2018-12-02T00:06:55.028Z,10.01
2018-12-02T00:07:55.046Z,10.04
2018-12-02T00:08:55.006Z,10.04
2018-12-02T00:09:54.996Z,10.01
2018-12-02T00:10:54.984Z,10.02
2018-12-02T00:11:54.978Z,10.10
2018-12-02T00:12:54.990Z,10.06
2018-12-02T00:13:54.952Z,10.09
2018-12-02T00:14:54.941Z,10.04
2018-12-02T00:15:54.927Z,10.02
2018-12-02T00:16:54.915Z,10.04
2018-12-02T00:17:54.937Z,10.01
2018-12-02T00:18:54.895Z,9.99
2018-12-02T00:19:54.889Z,10.07
2018-12-02T00:20:54.871Z,10.02
2018-12-02T00:21:54.861Z,10.07
2018-12-02T00:22:54.877Z,10.04
2018-12-02T00:23:54.841Z,10.04
2018-12-02T00:24:54.826Z,10.02
2018-12-02T00:25:54.821Z,10.06
2018-12-02T00:26:54.805Z,10.14
2018-12-02T00:27:54.820Z,10.07
2018-12-02T00:28:54.781Z,10.10
2018-12-02T00:29:54.770Z,10.01
2018-12-02T00:30:54.759Z,10.06
2018-12-02T00:31:54.753Z,9.99
2018-12-02T00:32:54.739Z,10.09
2018-12-02T00:33:54.757Z,10.06
2018-12-02T00:34:54.714Z,10.04
2018-12-02T00:35:54.703Z,10.11
2018-12-02T00:36:54.694Z,10.04
2018-12-02T00:37:54.696Z,10.10
2018-12-02T00:38:54.699Z,10.06
2018-12-02T00:39:54.657Z,10.06
2018-12-02T00:40:54.651Z,10.11
2018-12-02T00:41:54.638Z,10.11
2018-12-02T00:42:54.626Z,10.13
2018-12-02T00:43:54.651Z,10.10
2018-12-02T00:44:54.602Z,10.11
2018-12-02T00:45:54.611Z,10.13
2018-12-02T00:46:54.580Z,10.07
2018-12-02T00:47:54.570Z,10.11
2018-12-02T00:48:54.589Z,10.13
2018-12-02T00:49:54.554Z,10.11
2018-12-02T00:50:54.542Z,10.13
2018-12-02T00:51:54.527Z,10.11
2018-12-02T00:52:54.513Z,10.14
2018-12-02T00:53:54.531Z,10.14
2018-12-02T00:54:54.492Z,10.10
2018-12-02T00:55:54.481Z,10.13
2018-12-02T00:56:54.478Z,10.16
2018-12-02T00:57:54.457Z,10.09
2018-12-02T00:58:54.477Z,10.10
2018-12-02T00:59:54.436Z,10.13
2018-12-02T01:00:54.424Z,10.10
2018-12-02T01:01:54.412Z,10.20
2018-12-02T01:02:54.408Z,10.09
2018-12-02T01:03:54.422Z,10.10
2018-12-02T01:04:54.382Z,10.13
2018-12-02T01:05:54.369Z,10.16
2018-12-02T01:06:54.357Z,10.18
2018-12-02T01:07:54.347Z,10.17
2018-12-02T01:08:54.372Z,10.18
2018-12-02T01:09:54.322Z,10.18
2018-12-02T01:10:54.315Z,10.18
2018-12-02T01:11:54.303Z,10.14
2018-12-02T01:12:54.296Z,10.16
2018-12-02T01:13:54.307Z,10.18
2018-12-02T01:14:54.272Z,10.13
2018-12-02T01:15:54.257Z,10.18
2018-12-02T01:16:54.245Z,10.14
2018-12-02T01:17:54.237Z,10.14
2018-12-02T01:18:54.228Z,10.28
2018-12-02T01:19:54.241Z,10.28
2018-12-02T01:20:54.201Z,10.14
2018-12-02T01:21:54.193Z,10.17
2018-12-02T01:22:54.178Z,10.14
2018-12-02T01:23:54.172Z,10.18
2018-12-02T01:24:54.186Z,10.17
2018-12-02T01:25:54.145Z,10.20
2018-12-02T01:26:54.136Z,10.17
2018-12-02T01:27:54.128Z,10.26
2018-12-02T01:28:54.112Z,10.11
2018-12-02T01:29:54.129Z,10.18
2018-12-02T01:30:54.094Z,10.17
2018-12-02T01:31:54.082Z,10.24
2018-12-02T01:32:54.068Z,10.25
2018-12-02T01:33:54.065Z,10.26
2018-12-02T01:34:54.072Z,10.26
2018-12-02T01:35:54.034Z,10.26
2018-12-02T01:36:54.022Z,10.18
2018-12-02T01:37:54.014Z,10.25
2018-12-02T01:38:54.013Z,10.24
2018-12-02T01:39:54.018Z,10.28
2018-12-02T01:40:53.977Z,10.24
2018-12-02T01:41:53.968Z,10.25
2018-12-02T01:42:53.955Z,10.17
2018-12-02T01:43:53.944Z,10.25
2018-12-02T01:44:53.966Z,10.24
2018-12-02T01:45:53.921Z,10.25
2018-12-02T01:46:53.917Z,10.28
2018-12-02T01:47:53.903Z,10.24
2018-12-02T01:48:53.887Z,10.22
2018-12-02T01:49:53.882Z,10.26
2018-12-02T01:50:53.895Z,10.28
2018-12-02T01:51:53.854Z,10.28
2018-12-02T01:52:53.849Z,10.22
2018-12-02T01:53:53.835Z,10.24
2018-12-02T01:54:53.820Z,10.26
2018-12-02T01:55:53.838Z,10.22
2018-12-02T01:56:53.801Z,10.28
2018-12-02T01:57:53.788Z,10.22
2018-12-02T01:58:53.786Z,10.22
2018-12-02T01:59:53.766Z,10.34
2018-12-02T02:00:53.786Z,10.31
2018-12-02T02:01:53.744Z,10.35
2018-12-02T02:02:53.735Z,10.25
2018-12-02T02:03:53.720Z,10.28
2018-12-02T02:04:53.720Z,10.31
2018-12-02T02:05:53.728Z,10.25
2018-12-02T02:06:53.687Z,10.29
2018-12-02T02:07:53.684Z,10.39
2018-12-02T02:08:53.665Z,10.29
2018-12-02T02:09:53.654Z,10.26
2018-12-02T02:10:53.671Z,10.32
2018-12-02T02:11:53.639Z,10.31
2018-12-02T02:12:53.620Z,10.34
2018-12-02T02:13:53.610Z,10.39
2018-12-02T02:14:53.598Z,10.34
2018-12-02T02:15:53.615Z,10.36
2018-12-02T02:16:53.575Z,10.32
2018-12-02T02:17:53.570Z,10.29
2018-12-02T02:18:53.553Z,10.36
2018-12-02T02:19:53.542Z,10.38
2018-12-02T02:20:53.560Z,10.39
2018-12-02T02:21:53.523Z,10.35
2018-12-02T02:22:53.510Z,10.24
2018-12-02T02:23:53.508Z,10.42
2018-12-02T02:24:53.491Z,10.29
2018-12-02T02:25:53.504Z,10.25
2018-12-02T02:26:53.464Z,10.36
2018-12-02T02:27:53.452Z,10.36
2018-12-02T02:28:53.442Z,10.28
2018-12-02T02:29:53.434Z,10.26
2018-12-02T02:30:53.455Z,10.43
2018-12-02T02:31:53.411Z,10.35
2018-12-02T02:32:53.398Z,10.34
2018-12-02T02:33:53.396Z,10.28
2018-12-02T02:34:53.377Z,10.43
2018-12-02T02:35:53.468Z,10.38
2018-12-02T02:36:53.356Z,10.39
2018-12-02T02:37:53.341Z,10.38
2018-12-02T02:38:53.331Z,10.39
2018-12-02T02:39:53.320Z,10.29
2018-12-02T02:40:53.338Z,10.42
2018-12-02T02:41:53.302Z,10.35
2018-12-02T02:42:53.295Z,10.31
2018-12-02T02:43:53.274Z,10.32
2018-12-02T02:44:53.264Z,10.34
2018-12-02T02:45:53.280Z,10.26
2018-12-02T02:46:53.243Z,10.39
2018-12-02T02:47:53.235Z,10.42
2018-12-02T02:48:53.226Z,10.29
2018-12-02T02:49:53.209Z,10.31
2018-12-02T02:50:53.225Z,10.25
2018-12-02T02:51:53.184Z,10.32
2018-12-02T02:52:53.175Z,10.25
2018-12-02T02:53:53.162Z,10.28
2018-12-02T02:54:53.155Z,10.14
2018-12-02T02:55:53.169Z,10.18
2018-12-02T02:56:53.129Z,10.16
2018-12-02T02:57:53.122Z,10.14
2018-12-02T02:58:53.112Z,10.18
2018-12-02T02:59:53.098Z,10.14
2018-12-02T03:00:53.099Z,10.04
2018-12-02T03:01:53.111Z,10.11
2018-12-02T03:02:53.061Z,10.09
2018-12-02T03:03:53.052Z,10.09
2018-12-02T03:04:53.045Z,10.04
2018-12-02T03:05:53.034Z,10.10
2018-12-02T03:06:53.050Z,10.10
2018-12-02T03:07:53.012Z,9.98
2018-12-02T03:08:52.999Z,10.06
2018-12-02T03:09:52.993Z,10.06
2018-12-02T03:10:52.979Z,10.04
2018-12-02T03:11:52.990Z,9.93
2018-12-02T03:12:52.955Z,10.02
2018-12-02T03:13:52.942Z,9.91
2018-12-02T03:14:52.936Z,9.89
2018-12-02T03:15:52.924Z,9.92
2018-12-02T03:16:52.937Z,9.95
2018-12-02T03:17:52.902Z,9.92
2018-12-02T03:18:52.896Z,9.81
2018-12-02T03:19:52.873Z,9.89
2018-12-02T03:20:52.862Z,9.77
2018-12-02T03:21:52.882Z,9.81
2018-12-02T03:22:52.847Z,9.81
2018-12-02T03:23:52.829Z,9.83
2018-12-02T03:24:52.815Z,9.74
2018-12-02T03:25:52.805Z,9.74
2018-12-02T03:26:52.834Z,9.77
2018-12-02T03:27:52.785Z,9.77
2018-12-02T03:28:52.771Z,9.75
2018-12-02T03:29:52.761Z,9.83
2018-12-02T03:30:52.750Z,9.83
2018-12-02T03:31:52.768Z,9.67
2018-12-02T03:32:52.763Z,9.75
2018-12-02T03:33:52.715Z,9.65
2018-12-02T03:34:52.704Z,9.68
2018-12-02T03:35:52.694Z,9.62
2018-12-02T03:36:52.709Z,9.63
2018-12-02T03:37:52.671Z,9.62
2018-12-02T03:38:52.668Z,9.65
2018-12-02T03:39:52.651Z,9.65
2018-12-02T03:40:52.637Z,9.65
2018-12-02T03:41:52.655Z,9.58
2018-12-02T03:42:52.615Z,9.55
2018-12-02T03:43:52.603Z,9.53
2018-12-02T03:44:52.605Z,9.56
2018-12-02T03:45:52.583Z,9.53
2018-12-02T03:46:52.608Z,9.52
2018-12-02T03:47:52.558Z,9.53
2018-12-02T03:48:52.549Z,9.53
2018-12-02T03:49:52.539Z,9.53
2018-12-02T03:50:52.538Z,9.53
2018-12-02T03:51:52.545Z,9.58
2018-12-02T03:52:52.507Z,9.55
2018-12-02T03:53:52.492Z,9.63
2018-12-02T03:54:52.482Z,9.60
2018-12-02T03:55:52.469Z,9.56
2018-12-02T03:56:52.498Z,9.56
2018-12-02T03:57:52.451Z,9.53
2018-12-02T03:58:52.444Z,9.53
2018-12-02T03:59:52.427Z,9.55
2018-12-02T04:00:52.414Z,9.48
2018-12-02T04:01:52.433Z,9.55
2018-12-02T04:02:52.397Z,9.53
2018-12-02T04:03:52.382Z,9.53
2018-12-02T04:04:52.370Z,9.52
2018-12-02T04:05:52.360Z,9.55
2018-12-02T04:06:52.379Z,9.58
2018-12-02T04:07:52.346Z,9.50
2018-12-02T04:08:52.336Z,9.56
2018-12-02T04:09:52.314Z,9.59
2018-12-02T04:10:52.303Z,9.52
2018-12-02T04:11:52.323Z,9.53
2018-12-02T04:12:52.287Z,9.62
2018-12-02T04:13:52.269Z,9.52
2018-12-02T04:14:52.261Z,9.62
2018-12-02T04:15:52.252Z,9.55
2018-12-02T04:16:52.263Z,9.52
2018-12-02T04:17:52.232Z,9.52
2018-12-02T04:18:52.214Z,9.53
2018-12-02T04:19:52.203Z,9.56
2018-12-02T04:20:52.191Z,9.53
2018-12-02T04:21:52.216Z,9.58
2018-12-02T04:22:52.193Z,9.55
2018-12-02T04:23:52.160Z,9.49
2018-12-02T04:24:52.148Z,9.58
2018-12-02T04:25:52.136Z,9.58
2018-12-02T04:26:52.158Z,9.53
2018-12-02T04:27:52.120Z,9.63
2018-12-02T04:28:52.103Z,9.55
2018-12-02T04:29:52.091Z,9.59
2018-12-02T04:30:52.081Z,9.56
2018-12-02T04:31:52.097Z,9.62
2018-12-02T04:32:52.058Z,9.59
2018-12-02T04:33:52.055Z,9.63
2018-12-02T04:34:52.037Z,9.63
2018-12-02T04:35:52.025Z,9.58
2018-12-02T04:36:52.042Z,9.60
2018-12-02T04:37:52.002Z,9.63
2018-12-02T04:38:51.990Z,9.65
2018-12-02T04:39:51.984Z,9.59
2018-12-02T04:40:51.968Z,9.59
2018-12-02T04:41:51.990Z,9.60
2018-12-02T04:42:51.948Z,9.65
2018-12-02T04:43:51.935Z,9.67
2018-12-02T04:44:51.927Z,9.59
2018-12-02T04:45:51.919Z,9.63
2018-12-02T04:46:51.932Z,9.63
2018-12-02T04:47:51.892Z,9.63
2018-12-02T04:48:51.879Z,9.67
2018-12-02T04:49:51.870Z,9.60
2018-12-02T04:50:51.859Z,9.62
2018-12-02T04:51:51.854Z,9.62
2018-12-02T04:52:51.863Z,9.67
2018-12-02T04:53:51.826Z,9.62
2018-12-02T04:54:51.813Z,9.59
2018-12-02T04:55:51.801Z,9.67
2018-12-02T04:56:51.819Z,9.62
2018-12-02T04:57:51.787Z,9.65
2018-12-02T04:58:51.768Z,9.63
2018-12-02T04:59:51.757Z,9.67
2018-12-02T05:00:51.749Z,9.62
2018-12-02T05:01:51.736Z,9.70
2018-12-02T05:02:51.752Z,9.60
2018-12-02T05:03:51.719Z,9.63
2018-12-02T05:04:51.701Z,9.65
2018-12-02T05:05:51.690Z,9.70
2018-12-02T05:06:51.683Z,9.63
2018-12-02T05:07:51.702Z,9.68
2018-12-02T05:08:51.657Z,9.60
2018-12-02T05:09:51.655Z,9.60
2018-12-02T05:10:51.634Z,9.56
2018-12-02T05:11:51.627Z,9.63
2018-12-02T05:12:51.642Z,9.58
2018-12-02T05:13:51.601Z,9.59
2018-12-02T05:14:51.590Z,9.63
2018-12-02T05:15:51.590Z,9.60
2018-12-02T05:16:51.568Z,9.58
2018-12-02T05:17:51.590Z,9.56
2018-12-02T05:18:51.546Z,9.63
2018-12-02T05:19:51.534Z,9.55
2018-12-02T05:20:51.525Z,9.60
2018-12-02T05:21:51.515Z,9.58
2018-12-02T05:22:51.553Z,9.60
2018-12-02T05:23:51.490Z,9.58
2018-12-02T05:24:51.479Z,9.60
2018-12-02T05:25:51.468Z,9.56
2018-12-02T05:26:51.457Z,9.59
2018-12-02T05:27:51.484Z,9.63
2018-12-02T05:28:51.441Z,9.67
2018-12-02T05:29:51.424Z,9.60
2018-12-02T05:30:51.415Z,9.58
2018-12-02T05:31:51.400Z,9.67
2018-12-02T05:32:51.419Z,9.70
2018-12-02T05:33:51.377Z,9.63
2018-12-02T05:34:51.382Z,9.62
2018-12-02T05:35:51.363Z,9.63
2018-12-02T05:36:51.343Z,9.62
2018-12-02T05:37:51.361Z,9.65
2018-12-02T05:38:51.365Z,9.73
2018-12-02T05:39:51.310Z,9.63
2018-12-02T05:40:51.310Z,9.63
2018-12-02T05:41:51.289Z,9.68
2018-12-02T05:42:51.309Z,9.62
2018-12-02T05:43:51.267Z,9.68
2018-12-02T05:44:51.255Z,9.73
2018-12-02T05:45:51.245Z,9.58
2018-12-02T05:46:51.246Z,9.65
2018-12-02T05:47:51.252Z,9.67
2018-12-02T05:48:51.212Z,9.67
2018-12-02T05:49:51.201Z,9.63
2018-12-02T05:50:51.192Z,9.63
2018-12-02T05:51:51.178Z,9.71
2018-12-02T05:52:51.201Z,9.73
2018-12-02T05:53:51.159Z,9.63
2018-12-02T05:54:51.142Z,9.67
2018-12-02T05:55:51.130Z,9.68
2018-12-02T05:56:51.123Z,9.65
2018-12-02T05:57:51.139Z,9.68
2018-12-02T05:58:51.109Z,9.60
2018-12-02T05:59:51.087Z,9.60
2018-12-02T06:00:51.076Z,9.67
2018-12-02T06:01:51.065Z,9.65
2018-12-02T06:02:51.083Z,9.62
2018-12-02T06:03:51.043Z,9.62
2018-12-02T06:04:51.036Z,9.58
2018-12-02T06:05:51.021Z,9.65
2018-12-02T06:06:51.012Z,9.62
2018-12-02T06:07:51.030Z,9.63
2018-12-02T06:08:50.987Z,9.63
2018-12-02T06:09:50.976Z,9.67
2018-12-02T06:10:50.967Z,9.63
2018-12-02T06:11:50.955Z,9.70
2018-12-02T06:12:50.972Z,9.63
2018-12-02T06:13:50.931Z,9.68
2018-12-02T06:14:50.921Z,9.62
2018-12-02T06:15:50.910Z,9.70
2018-12-02T06:16:50.899Z,9.63
2018-12-02T06:17:50.914Z,9.67
2018-12-02T06:18:50.875Z,9.62
2018-12-02T06:19:50.864Z,9.68
2018-12-02T06:20:50.852Z,9.70
2018-12-02T06:21:50.841Z,9.71
2018-12-02T06:22:50.869Z,9.75
2018-12-02T06:23:50.821Z,9.68
2018-12-02T06:24:50.808Z,9.74
2018-12-02T06:25:50.797Z,9.75
2018-12-02T06:26:50.788Z,9.67
2018-12-02T06:27:50.803Z,9.75
2018-12-02T06:28:50.771Z,9.78
2018-12-02T06:29:50.754Z,9.85
2018-12-02T06:30:50.743Z,9.78
2018-12-02T06:31:50.729Z,9.75
2018-12-02T06:32:50.749Z,9.74
2018-12-02T06:33:50.707Z,9.81
2018-12-02T06:34:50.703Z,9.80
2018-12-02T06:35:50.688Z,9.77
2018-12-02T06:36:50.679Z,9.75
2018-12-02T06:37:50.687Z,9.85
2018-12-02T06:38:50.686Z,9.75
2018-12-02T06:39:50.641Z,9.77
2018-12-02T06:40:50.639Z,9.78
2018-12-02T06:41:50.628Z,9.88
2018-12-02T06:42:50.642Z,9.85
2018-12-02T06:43:50.596Z,9.83
2018-12-02T06:44:50.591Z,9.86
2018-12-02T06:45:50.574Z,9.85
2018-12-02T06:46:50.562Z,9.88
2018-12-02T06:47:50.556Z,9.80
2018-12-02T06:48:50.569Z,9.91
2018-12-02T06:49:50.535Z,9.88
2018-12-02T06:50:50.523Z,9.93
2018-12-02T06:51:50.512Z,9.92
2018-12-02T06:52:50.545Z,9.93
2018-12-02T06:53:50.487Z,9.99
2018-12-02T06:54:50.473Z,9.93
2018-12-02T06:55:50.464Z,9.96
2018-12-02T06:56:50.451Z,9.96
2018-12-02T06:57:50.449Z,9.98
2018-12-02T06:58:50.457Z,9.99
2018-12-02T06:59:50.418Z,10.02
2018-12-02T07:00:50.407Z,9.95
2018-12-02T07:01:50.396Z,10.01
2018-12-02T07:02:50.386Z,10.02
2018-12-02T07:03:50.412Z,9.96
2018-12-02T07:04:50.361Z,10.01
2018-12-02T07:05:50.349Z,9.98
2018-12-02T07:06:50.342Z,9.96
2018-12-02T07:07:50.330Z,9.96
2018-12-02T07:08:50.346Z,9.98
2018-12-02T07:09:50.310Z,10.02
2018-12-02T07:10:50.299Z,10.06
2018-12-02T07:11:50.284Z,9.99
2018-12-02T07:12:50.276Z,10.01
2018-12-02T07:13:50.290Z,10.01
2018-12-02T07:14:50.249Z,9.99
2018-12-02T07:15:50.238Z,9.96
2018-12-02T07:16:50.233Z,9.93
2018-12-02T07:17:50.218Z,9.96
2018-12-02T07:18:50.236Z,9.98
2018-12-02T07:19:50.198Z,10.01
2018-12-02T07:20:50.186Z,10.06
2018-12-02T07:21:50.172Z,10.02
2018-12-02T07:22:50.167Z,10.09
2018-12-02T07:23:50.177Z,10.09
2018-12-02T07:24:50.144Z,10.06
2018-12-02T07:25:50.132Z,9.99
2018-12-02T07:26:50.117Z,9.98
2018-12-02T07:27:50.135Z,10.06
2018-12-02T07:28:50.129Z,10.07
2018-12-02T07:29:50.125Z,10.09
2018-12-02T07:30:50.080Z,10.01
2018-12-02T07:31:50.069Z,10.07
2018-12-02T07:32:50.052Z,10.04
2018-12-02T07:33:50.076Z,10.10
2018-12-02T07:34:50.038Z,10.09
2018-12-02T07:35:50.048Z,10.07
2018-12-02T07:36:50.005Z,10.04
2018-12-02T07:37:49.993Z,10.02
2018-12-02T07:38:50.012Z,10.01
2018-12-02T07:39:49.979Z,10.02
2018-12-02T07:40:49.959Z,10.06
2018-12-02T07:41:49.949Z,10.09
2018-12-02T07:42:49.938Z,10.02
2018-12-02T07:43:49.957Z,10.02
2018-12-02T07:44:49.917Z,10.04
2018-12-02T07:45:49.911Z,10.07
2018-12-02T07:46:49.893Z,10.09
2018-12-02T07:47:49.882Z,10.10
2018-12-02T07:48:49.872Z,10.10
2018-12-02T07:49:49.893Z,10.07
2018-12-02T07:50:49.850Z,10.17
2018-12-02T07:51:49.851Z,10.22
2018-12-02T07:52:49.827Z,10.14
2018-12-02T07:53:49.818Z,10.13
2018-12-02T07:54:49.834Z,10.07
2018-12-02T07:55:49.793Z,10.14
2018-12-02T07:56:49.784Z,10.11
2018-12-02T07:57:49.776Z,10.17
2018-12-02T07:58:49.763Z,10.14
2018-12-02T07:59:49.776Z,10.20
2018-12-02T08:00:49.737Z,10.22
2018-12-02T08:01:49.726Z,10.20
2018-12-02T08:02:49.716Z,10.17
2018-12-02T08:03:49.711Z,10.17
2018-12-02T08:04:49.723Z,10.24
2018-12-02T08:05:49.681Z,10.24
2018-12-02T08:06:49.671Z,10.26
2018-12-02T08:07:49.660Z,10.20
2018-12-02T08:08:49.648Z,10.29
2018-12-02T08:09:49.677Z,10.34
2018-12-02T08:10:49.626Z,10.32
2018-12-02T08:11:49.615Z,10.28
2018-12-02T08:12:49.604Z,10.25
2018-12-02T08:13:49.594Z,10.35
2018-12-02T08:14:49.609Z,10.34
2018-12-02T08:15:49.574Z,10.42
2018-12-02T08:16:49.559Z,10.43
2018-12-02T08:17:49.547Z,10.49
2018-12-02T08:18:49.538Z,10.52
2018-12-02T08:19:49.553Z,10.54
2018-12-02T08:20:49.515Z,10.54
2018-12-02T08:21:49.510Z,10.46
2018-12-02T08:22:51.570Z,10.46
2018-12-02T08:23:49.479Z,10.52
2018-12-02T08:24:49.471Z,10.58
2018-12-02T08:25:49.486Z,10.49
2018-12-02T08:26:49.449Z,10.58
2018-12-02T08:27:49.436Z,10.57
2018-12-02T08:28:49.436Z,10.60
2018-12-02T08:29:49.414Z,10.55
2018-12-02T08:30:49.431Z,10.55
2018-12-02T08:31:49.389Z,10.52
2018-12-02T08:32:49.379Z,10.62
2018-12-02T08:33:49.368Z,10.70
2018-12-02T08:34:49.357Z,10.66
2018-12-02T08:35:49.383Z,10.68
2018-12-02T08:36:49.336Z,10.68
2018-12-02T08:37:49.323Z,10.68
2018-12-02T08:38:49.315Z,10.68
2018-12-02T08:39:49.300Z,10.68
2018-12-02T08:40:49.318Z,10.80
2018-12-02T08:41:49.283Z,10.83
2018-12-02T08:42:49.267Z,10.78
2018-12-02T08:43:49.256Z,10.75
2018-12-02T08:44:49.246Z,10.84
2018-12-02T08:45:49.284Z,10.80
2018-12-02T08:46:49.227Z,10.80
2018-12-02T08:47:49.212Z,10.80
2018-12-02T08:48:49.201Z,10.76
2018-12-02T08:49:49.189Z,10.78
2018-12-02T08:50:49.179Z,10.86
2018-12-02T08:51:49.195Z,10.81
2018-12-02T08:52:49.160Z,10.90
2018-12-02T08:53:49.146Z,10.78
2018-12-02T08:54:49.132Z,10.86
2018-12-02T08:55:49.161Z,10.86
2018-12-02T08:56:49.112Z,10.80
2018-12-02T08:57:49.099Z,10.87
2018-12-02T08:58:49.097Z,10.84
2018-12-02T08:59:49.077Z,10.94
2018-12-02T09:00:49.066Z,10.80
2018-12-02T09:01:49.084Z,10.78
2018-12-02T09:02:49.044Z,10.81
2018-12-02T09:03:49.292Z,10.84
2018-12-02T09:04:49.027Z,10.81
2018-12-02T09:05:49.011Z,10.86
2018-12-02T09:06:49.028Z,10.91
2018-12-02T09:07:48.987Z,10.78
2018-12-02T09:08:48.980Z,10.78
2018-12-02T09:09:48.965Z,10.88
2018-12-02T09:10:48.957Z,10.81
2018-12-02T09:11:48.977Z,10.80
2018-12-02T09:12:48.947Z,10.90
2018-12-02T09:13:48.923Z,10.83
2018-12-02T09:14:48.917Z,10.83
2018-12-02T09:15:48.897Z,10.93
2018-12-02T09:16:48.924Z,10.81
2018-12-02T09:17:48.876Z,10.83
2018-12-02T09:18:48.866Z,10.78
2018-12-02T09:19:48.859Z,10.80
2018-12-02T09:20:48.845Z,10.81
2018-12-02T09:21:48.869Z,10.84
2018-12-02T09:22:48.821Z,10.84
2018-12-02T09:23:48.811Z,10.88
2018-12-02T09:24:48.801Z,10.93
2018-12-02T09:25:48.802Z,10.87
2018-12-02T09:26:48.785Z,10.93
2018-12-02T09:27:48.803Z,10.94
2018-12-02T09:28:48.755Z,10.99
2018-12-02T09:29:48.746Z,10.95
2018-12-02T09:30:48.737Z,10.99
2018-12-02T09:31:48.719Z,11.08
2018-12-02T09:32:48.738Z,10.99
2018-12-02T09:33:48.698Z,10.99
2018-12-02T09:34:48.702Z,11.05
2018-12-02T09:35:48.676Z,11.01
2018-12-02T09:36:48.679Z,11.12
2018-12-02T09:37:48.681Z,11.06
2018-12-02T09:38:48.643Z,11.08
2018-12-02T09:39:48.637Z,11.12
2018-12-02T09:40:48.619Z,11.08
2018-12-02T09:41:48.611Z,11.09
2018-12-02T09:42:48.631Z,11.27
2018-12-02T09:43:48.585Z,11.21
2018-12-02T09:44:48.578Z,11.26
2018-12-02T09:45:48.564Z,11.30
2018-12-02T09:46:48.561Z,11.24
2018-12-02T09:47:48.571Z,11.24
2018-12-02T09:48:48.535Z,11.33
2018-12-02T09:49:48.518Z,11.31
2018-12-02T09:50:48.512Z,11.30
2018-12-02T09:51:48.501Z,11.33
2018-12-02T09:52:48.519Z,11.39
2018-12-02T09:53:48.483Z,11.38
2018-12-02T09:54:48.472Z,11.44
2018-12-02T09:55:48.452Z,11.39
2018-12-02T09:56:48.443Z,11.49
2018-12-02T09:57:48.461Z,11.36
2018-12-02T09:58:48.428Z,11.46
2018-12-02T09:59:48.410Z,11.46
2018-12-02T10:00:48.420Z,11.46
2018-12-02T10:01:48.385Z,11.44
2018-12-02T10:02:48.376Z,11.46
2018-12-02T10:03:48.390Z,11.53
2018-12-02T10:04:48.362Z,11.54
2018-12-02T10:05:48.342Z,11.56
2018-12-02T10:06:48.330Z,11.63
2018-12-02T10:07:48.329Z,11.64
2018-12-02T10:08:48.337Z,11.60
2018-12-02T10:09:48.305Z,11.64
2018-12-02T10:10:48.286Z,11.74
2018-12-02T10:11:48.275Z,11.74
2018-12-02T10:12:48.268Z,11.78
2018-12-02T10:13:48.285Z,11.78
2018-12-02T10:14:48.241Z,11.81
2018-12-02T10:15:48.232Z,11.85
2018-12-02T10:16:48.217Z,11.93
2018-12-02T10:17:48.217Z,11.88
2018-12-02T10:18:48.225Z,11.97
2018-12-02T10:19:48.184Z,11.87
2018-12-02T10:20:48.184Z,11.98
2018-12-02T10:21:48.162Z,12.05
2018-12-02T10:22:48.151Z,12.12
2018-12-02T10:23:48.178Z,12.08
2018-12-02T10:24:48.173Z,12.04
2018-12-02T10:25:48.121Z,12.07
2018-12-02T10:26:48.108Z,12.11
2018-12-02T10:27:48.096Z,12.25
2018-12-02T10:28:48.111Z,12.18
2018-12-02T10:29:48.074Z,12.25
2018-12-02T10:30:48.069Z,12.25
2018-12-02T10:31:48.052Z,12.29
2018-12-02T10:32:48.038Z,12.25
2018-12-02T10:33:48.055Z,12.37
2018-12-02T10:34:48.021Z,12.30
2018-12-02T10:35:48.011Z,12.33
2018-12-02T10:36:48.000Z,12.31
2018-12-02T10:37:47.983Z,12.34
2018-12-02T10:38:48.001Z,12.33
2018-12-02T10:39:47.961Z,12.36
2018-12-02T10:40:47.950Z,12.33
2018-12-02T10:41:47.938Z,12.40
2018-12-02T10:42:47.933Z,12.41
2018-12-02T10:43:47.945Z,12.36
2018-12-02T10:44:47.905Z,12.33
2018-12-02T10:45:47.897Z,12.34
2018-12-02T10:46:47.884Z,12.26
2018-12-02T10:47:47.874Z,12.30
2018-12-02T10:48:47.899Z,12.33
2018-12-02T10:49:47.849Z,12.31
2018-12-02T10:50:47.838Z,12.26
2018-12-02T10:51:47.827Z,12.36
2018-12-02T10:52:47.816Z,12.29
2018-12-02T10:53:47.836Z,12.30
2018-12-02T10:54:47.797Z,12.25
2018-12-02T10:55:47.785Z,12.25
2018-12-02T10:56:47.770Z,12.25
2018-12-02T10:57:47.759Z,12.30
2018-12-02T10:58:47.779Z,12.23
2018-12-02T10:59:47.739Z,12.31
2018-12-02T11:00:47.732Z,12.30
2018-12-02T11:01:47.715Z,12.29
2018-12-02T11:02:47.706Z,12.33
2018-12-02T11:03:47.721Z,12.37
2018-12-02T11:04:47.682Z,12.41
2018-12-02T11:05:47.670Z,12.44
2018-12-02T11:06:47.669Z,12.51
2018-12-02T11:07:47.650Z,12.52
2018-12-02T11:08:47.665Z,12.58
2018-12-02T11:09:47.631Z,12.61
2018-12-02T11:10:47.615Z,12.59
2018-12-02T11:11:47.606Z,12.70
2018-12-02T11:12:47.605Z,12.56
2018-12-02T11:13:47.586Z,12.62
2018-12-02T11:14:47.600Z,12.71
2018-12-02T11:15:47.559Z,12.69
2018-12-02T11:16:47.549Z,12.63
2018-12-02T11:17:47.536Z,12.61
2018-12-02T11:18:47.536Z,12.67
2018-12-02T11:19:47.543Z,12.74
2018-12-02T11:20:47.504Z,12.70
2018-12-02T11:21:47.495Z,12.74
2018-12-02T11:22:47.481Z,12.74
2018-12-02T11:23:47.471Z,12.74
2018-12-02T11:24:47.496Z,12.76
2018-12-02T11:25:47.447Z,12.81
2018-12-02T11:26:47.438Z,12.91
2018-12-02T11:27:47.425Z,12.96
2018-12-02T11:28:47.416Z,12.92
2018-12-02T11:29:47.433Z,12.96
2018-12-02T11:30:47.402Z,13.03
2018-12-02T11:31:47.379Z,12.95
2018-12-02T11:32:47.368Z,12.95
2018-12-02T11:33:47.357Z,12.98
2018-12-02T11:34:47.377Z,13.06
2018-12-02T11:35:47.338Z,12.98
2018-12-02T11:36:47.331Z,12.99
2018-12-02T11:37:47.317Z,13.01
2018-12-02T11:38:47.302Z,12.98
2018-12-02T11:39:47.320Z,13.04
2018-12-02T11:40:47.282Z,13.03
2018-12-02T11:41:47.268Z,13.12
2018-12-02T11:42:47.262Z,13.19
2018-12-02T11:43:47.245Z,13.13
2018-12-02T11:44:47.239Z,13.16
2018-12-02T11:45:47.252Z,13.19
2018-12-02T11:46:47.214Z,13.29
2018-12-02T11:47:47.204Z,13.22
2018-12-02T11:48:47.194Z,13.36
2018-12-02T11:49:47.181Z,13.43
2018-12-02T11:50:47.201Z,13.39
2018-12-02T11:51:47.156Z,13.39
2018-12-02T11:52:47.144Z,13.50
2018-12-02T11:53:47.136Z,13.53
2018-12-02T11:54:47.122Z,13.53
2018-12-02T11:55:47.141Z,13.54
2018-12-02T11:56:47.108Z,13.57
2018-12-02T11:57:47.090Z,13.59
2018-12-02T11:58:47.138Z,13.54
2018-12-02T11:59:47.067Z,13.62
2018-12-02T12:00:47.084Z,13.55
2018-12-02T12:01:47.048Z,13.62
2018-12-02T12:02:47.035Z,13.63
2018-12-02T12:03:47.033Z,13.73
2018-12-02T12:04:47.011Z,13.68
2018-12-02T12:05:47.030Z,13.76
2018-12-02T12:06:46.991Z,13.68
2018-12-02T12:07:46.978Z,13.72
2018-12-02T12:08:46.974Z,13.75
2018-12-02T12:09:46.956Z,13.86
2018-12-02T12:10:46.971Z,13.90
2018-12-02T12:11:46.937Z,13.94
2018-12-02T12:12:46.922Z,14.02
2018-12-02T12:13:46.913Z,14.16
2018-12-02T12:14:46.899Z,14.16
2018-12-02T12:15:46.917Z,14.26
2018-12-02T12:16:46.876Z,14.31
2018-12-02T12:17:46.870Z,14.27
2018-12-02T12:18:46.854Z,14.29
2018-12-02T12:19:46.842Z,14.35
2018-12-02T12:20:46.862Z,14.35
2018-12-02T12:21:46.820Z,14.46
2018-12-02T12:22:46.810Z,14.46
2018-12-02T12:23:46.811Z,14.49
2018-12-02T12:24:46.790Z,14.53
2018-12-02T12:25:46.804Z,14.54
2018-12-02T12:26:46.765Z,14.54
2018-12-02T12:27:46.762Z,14.56
2018-12-02T12:28:46.744Z,14.57
2018-12-02T12:29:46.731Z,14.61
2018-12-02T12:30:46.734Z,14.61
2018-12-02T12:31:46.739Z,14.63
2018-12-02T12:32:46.699Z,14.69
2018-12-02T12:33:46.687Z,14.61
2018-12-02T12:34:46.675Z,14.57
2018-12-02T12:35:46.700Z,14.57
2018-12-02T12:36:46.684Z,14.57
2018-12-02T12:37:46.643Z,14.54
2018-12-02T12:38:46.632Z,14.54
2018-12-02T12:39:46.622Z,14.49
2018-12-02T12:40:46.609Z,14.46
2018-12-02T12:41:46.627Z,14.48
2018-12-02T12:42:46.621Z,14.46
2018-12-02T12:43:46.576Z,14.48
2018-12-02T12:44:46.571Z,14.45
2018-12-02T12:45:46.555Z,14.45
2018-12-02T12:46:46.570Z,14.45
2018-12-02T12:47:46.530Z,14.45
2018-12-02T12:48:46.520Z,14.39
2018-12-02T12:49:46.509Z,14.39
2018-12-02T12:50:46.499Z,14.38
2018-12-02T12:51:46.514Z,14.29
2018-12-02T12:52:46.479Z,14.38
2018-12-02T12:53:46.466Z,14.34
2018-12-02T12:54:46.453Z,14.31
2018-12-02T12:55:50.830Z,14.29
2018-12-02T12:56:46.459Z,14.30
2018-12-02T12:57:46.418Z,14.30
2018-12-02T12:58:46.416Z,14.34
2018-12-02T12:59:46.396Z,14.26
2018-12-02T13:00:46.385Z,14.26